createdAt,value
2022-10-16T00:01:07.446Z,15.45
2022-10-16T00:03:36.186Z,17.70
2022-10-16T00:06:05.060Z,15.55
2022-10-16T00:08:33.882Z,15.85
2022-10-16T00:11:05.239Z,15.45
2022-10-16T00:13:34.241Z,16.95
2022-10-16T00:16:03.099Z,15.10
2022-10-16T00:18:31.850Z,17.70
2022-10-16T00:21:04.637Z,16.85
2022-10-16T00:23:33.273Z,15.30
2022-10-16T00:26:06.401Z,16.98
2022-10-16T00:28:36.594Z,15.77
2022-10-16T00:31:06.486Z,18.25
2022-10-16T00:33:35.065Z,14.27
2022-10-16T00:36:03.818Z,13.88
2022-10-16T00:38:32.305Z,15.13
2022-10-16T00:41:00.941Z,15.63
2022-10-16T00:43:41.307Z,15.35
2022-10-16T00:46:16.772Z,15.32
2022-10-16T00:48:49.550Z,12.82
2022-10-16T00:51:18.643Z,14.23
2022-10-16T00:53:47.101Z,16.42
2022-10-16T00:56:15.632Z,17.42
2022-10-16T00:58:45.517Z,15.05
2022-10-16T01:01:14.300Z,13.98
2022-10-16T01:03:42.951Z,12.80
2022-10-16T01:06:36.429Z,17.73
2022-10-16T01:09:14.295Z,14.50
2022-10-16T01:11:50.188Z,17.08
2022-10-16T01:14:24.723Z,13.70
2022-10-16T01:16:57.515Z,15.85
2022-10-16T01:19:51.941Z,16.17
2022-10-16T01:22:20.898Z,14.70
2022-10-16T01:24:51.558Z,14.02
2022-10-16T01:27:23.043Z,11.88
2022-10-16T01:29:54.957Z,11.57
2022-10-16T01:32:33.542Z,12.27
2022-10-16T01:35:04.925Z,13.57
2022-10-16T01:37:37.901Z,12.70
2022-10-16T01:40:09.673Z,13.43
2022-10-16T01:42:41.398Z,13.38
2022-10-16T01:45:12.480Z,13.00
2022-10-16T01:47:41.247Z,12.05
2022-10-16T01:50:10.591Z,13.02
2022-10-16T01:52:42.011Z,13.80
2022-10-16T01:55:11.552Z,14.80
2022-10-16T01:57:44.880Z,11.05
2022-10-16T02:00:15.178Z,12.52
2022-10-16T02:02:44.510Z,15.25
2022-10-16T02:05:17.069Z,11.15
2022-10-16T02:07:45.719Z,11.38
2022-10-16T02:10:14.253Z,14.98
2022-10-16T02:12:45.738Z,11.13
2022-10-16T02:15:14.228Z,11.65
2022-10-16T02:17:42.837Z,12.43
2022-10-16T02:20:12.493Z,12.07
2022-10-16T02:22:44.796Z,11.07
2022-10-16T02:25:15.419Z,12.30
2022-10-16T02:27:51.325Z,12.63
2022-10-16T02:30:23.562Z,12.43
2022-10-16T02:32:52.361Z,11.15
2022-10-16T02:35:22.316Z,11.05
2022-10-16T02:37:51.169Z,12.88
2022-10-16T02:40:22.868Z,13.85
2022-10-16T02:42:56.263Z,13.85
2022-10-16T02:45:26.560Z,11.30
2022-10-16T02:47:55.060Z,11.77
2022-10-16T02:50:23.782Z,13.15
2022-10-16T02:52:52.337Z,11.77
2022-10-16T02:55:20.920Z,11.65
2022-10-16T02:57:49.405Z,11.45
2022-10-16T03:00:20.358Z,10.48
2022-10-16T03:02:48.857Z,10.13
2022-10-16T03:05:17.744Z,9.98
2022-10-16T03:07:46.320Z,10.82
2022-10-16T03:10:15.190Z,11.38
2022-10-16T03:12:43.810Z,12.65
2022-10-16T03:15:12.542Z,11.60
2022-10-16T03:17:42.613Z,10.07
2022-10-16T03:20:11.963Z,10.60
2022-10-16T03:22:40.571Z,9.98
2022-10-16T03:25:10.300Z,11.32
2022-10-16T03:27:38.816Z,11.88
2022-10-16T03:30:08.986Z,10.32
2022-10-16T03:32:37.523Z,10.93
2022-10-16T03:35:08.832Z,10.10
2022-10-16T03:37:37.373Z,10.15
2022-10-16T03:40:06.765Z,10.18
2022-10-16T03:42:35.268Z,10.02
2022-10-16T03:45:04.048Z,11.65
2022-10-16T03:47:34.186Z,9.48
2022-10-16T03:50:02.718Z,9.45
2022-10-16T03:52:34.000Z,9.98
2022-10-16T03:55:02.607Z,10.05
2022-10-16T03:57:31.197Z,9.88
2022-10-16T03:59:59.754Z,11.70
2022-10-16T04:02:28.382Z,9.25
2022-10-16T04:04:56.916Z,10.07
2022-10-16T04:07:25.860Z,9.55
2022-10-16T04:09:56.108Z,10.00
2022-10-16T04:12:24.871Z,11.15
2022-10-16T04:14:53.350Z,9.63
2022-10-16T04:17:22.084Z,9.90
2022-10-16T04:19:50.936Z,9.25
2022-10-16T04:22:19.513Z,9.43
2022-10-16T04:24:48.049Z,9.40
2022-10-16T04:27:18.240Z,9.77
2022-10-16T04:29:46.765Z,10.77
2022-10-16T04:32:15.310Z,10.77
2022-10-16T04:34:43.864Z,10.32
2022-10-16T04:37:12.438Z,9.73
2022-10-16T04:39:41.058Z,9.45
2022-10-16T04:42:09.623Z,10.60
2022-10-16T04:44:39.476Z,8.60
2022-10-16T04:47:09.280Z,10.05
2022-10-16T04:49:37.800Z,9.38
2022-10-16T04:52:06.765Z,8.70
2022-10-16T04:54:35.301Z,8.95
2022-10-16T04:57:03.955Z,9.18
2022-10-16T04:59:32.418Z,10.07
2022-10-16T05:02:02.567Z,9.98
2022-10-16T05:04:31.062Z,9.40
2022-10-16T05:06:59.622Z,10.00
2022-10-16T05:09:28.288Z,9.50
2022-10-16T05:11:57.074Z,8.85
2022-10-16T05:14:25.675Z,8.82
2022-10-16T05:16:54.245Z,8.02
2022-10-16T05:19:28.360Z,10.35
2022-10-16T05:21:57.682Z,8.43
2022-10-16T05:24:26.390Z,8.80
2022-10-16T05:26:54.962Z,9.10
2022-10-16T05:29:23.607Z,9.25
2022-10-16T05:31:54.106Z,11.63
2022-10-16T05:34:24.344Z,8.57
2022-10-16T05:36:53.205Z,8.88
2022-10-16T05:39:22.208Z,8.65
2022-10-16T05:41:53.365Z,8.90
2022-10-16T05:44:22.051Z,9.07
2022-10-16T05:46:50.650Z,8.98
2022-10-16T05:49:19.319Z,9.07
2022-10-16T05:51:49.294Z,8.93
2022-10-16T05:54:17.937Z,8.70
2022-10-16T05:56:47.274Z,9.20
2022-10-16T05:59:16.111Z,9.27
2022-10-16T06:01:44.703Z,10.15
2022-10-16T06:04:13.238Z,8.65
2022-10-16T06:06:42.072Z,8.68
2022-10-16T06:09:12.020Z,10.73
2022-10-16T06:11:40.714Z,8.88
2022-10-16T06:14:10.226Z,12.80
2022-10-16T06:16:39.364Z,8.52
2022-10-16T06:19:09.286Z,8.55
2022-10-16T06:21:38.103Z,8.32
2022-10-16T06:24:07.106Z,8.48
2022-10-16T06:26:37.187Z,9.30
2022-10-16T06:29:05.897Z,8.50
2022-10-16T06:31:34.774Z,9.65
2022-10-16T06:34:05.789Z,8.90
2022-10-16T06:36:34.411Z,8.13
2022-10-16T06:39:02.923Z,9.77
2022-10-16T06:41:31.466Z,8.85
2022-10-16T06:44:01.348Z,8.30
2022-10-16T06:46:30.073Z,9.40
2022-10-16T06:48:58.651Z,9.68
2022-10-16T06:51:27.543Z,9.70
2022-10-16T06:54:04.978Z,8.45
2022-10-16T06:56:34.289Z,9.43
2022-10-16T06:59:04.391Z,7.60
2022-10-16T07:01:33.165Z,8.43
2022-10-16T07:04:02.942Z,8.50
2022-10-16T07:06:34.379Z,8.50
2022-10-16T07:09:09.054Z,8.57
2022-10-16T07:11:38.988Z,7.85
2022-10-16T07:14:16.551Z,8.48
2022-10-16T07:16:45.760Z,7.93
2022-10-16T07:19:15.791Z,8.35
2022-10-16T07:21:44.652Z,8.95
2022-10-16T07:24:14.878Z,8.52
2022-10-16T07:26:44.979Z,8.32
2022-10-16T07:29:16.835Z,12.15
2022-10-16T07:31:45.540Z,7.85
2022-10-16T07:34:14.754Z,8.80
2022-10-16T07:36:43.443Z,9.10
2022-10-16T07:39:12.084Z,7.93
2022-10-16T07:41:40.615Z,8.15
2022-10-16T07:44:09.813Z,8.00
2022-10-16T07:46:39.862Z,7.97
2022-10-16T07:49:08.459Z,8.00
2022-10-16T07:51:37.066Z,8.10
2022-10-16T07:54:05.946Z,7.38
2022-10-16T07:56:35.413Z,7.75
2022-10-16T07:59:04.143Z,7.78
2022-10-16T08:01:32.751Z,7.57
2022-10-16T08:04:02.764Z,7.55
2022-10-16T08:06:31.323Z,7.68
2022-10-16T08:09:01.073Z,7.50
2022-10-16T08:11:29.812Z,8.27
2022-10-16T08:13:58.478Z,7.80
2022-10-16T08:16:27.134Z,7.93
2022-10-16T08:18:55.803Z,7.90
2022-10-16T08:21:25.927Z,7.43
2022-10-16T08:23:58.161Z,9.02
2022-10-16T08:26:28.179Z,7.15
2022-10-16T08:28:57.153Z,8.50
2022-10-16T08:31:27.312Z,7.80
2022-10-16T08:33:55.994Z,8.80
2022-10-16T08:36:25.904Z,7.72
2022-10-16T08:38:55.563Z,7.10
2022-10-16T08:41:57.940Z,7.38
2022-10-16T08:45:16.063Z,7.63
2022-10-16T08:47:52.382Z,7.75
2022-10-16T08:50:25.765Z,7.45
2022-10-16T08:52:56.129Z,8.15
2022-10-16T08:55:34.378Z,8.30
2022-10-16T08:58:03.179Z,7.22
2022-10-16T09:00:32.602Z,10.32
2022-10-16T09:03:08.176Z,7.80
2022-10-16T09:06:04.506Z,7.35
2022-10-16T09:08:41.675Z,7.93
2022-10-16T09:11:14.426Z,7.38
2022-10-16T09:13:50.834Z,8.85
2022-10-16T09:16:23.396Z,7.30
2022-10-16T09:18:57.186Z,7.53
2022-10-16T09:21:27.916Z,7.40
2022-10-16T09:23:59.804Z,7.85
2022-10-16T09:26:28.452Z,7.25
2022-10-16T09:28:57.086Z,7.68
2022-10-16T09:31:25.732Z,7.53
2022-10-16T09:33:57.800Z,7.40
2022-10-16T09:36:26.689Z,7.90
2022-10-16T09:39:06.750Z,7.68
2022-10-16T09:41:36.871Z,7.55
2022-10-16T09:44:06.021Z,7.15
2022-10-16T09:46:35.491Z,7.15
2022-10-16T09:49:05.778Z,6.97
2022-10-16T09:51:36.435Z,7.35
2022-10-16T09:54:16.683Z,7.18
2022-10-16T09:56:46.717Z,9.15
2022-10-16T09:59:16.520Z,7.75
2022-10-16T10:01:47.536Z,7.47
2022-10-16T10:04:16.189Z,6.97
2022-10-16T10:06:46.761Z,7.15
2022-10-16T10:09:22.225Z,7.00
2022-10-16T10:11:56.027Z,7.32
2022-10-16T10:14:30.934Z,6.95
2022-10-16T10:17:17.970Z,6.45
2022-10-16T10:19:51.072Z,16.23
2022-10-16T10:22:32.839Z,11.43
2022-10-16T10:25:34.840Z,8.68
2022-10-16T10:28:36.680Z,7.30
2022-10-16T10:31:09.017Z,7.40
2022-10-16T10:33:44.962Z,6.68
2022-10-16T10:36:42.421Z,6.82
2022-10-16T10:39:13.812Z,7.43
2022-10-16T10:42:07.949Z,6.82
2022-10-16T10:45:00.434Z,15.90
2022-10-16T10:47:37.543Z,7.10
2022-10-16T10:50:11.503Z,6.68
2022-10-16T10:52:59.385Z,10.73
2022-10-16T10:55:34.593Z,9.32
2022-10-16T10:58:24.898Z,8.50
2022-10-16T11:00:59.838Z,7.95
2022-10-16T11:03:37.662Z,9.88
2022-10-16T11:06:07.823Z,7.43
2022-10-16T11:08:38.325Z,7.85
2022-10-16T11:11:10.274Z,7.60
2022-10-16T11:13:43.118Z,7.75
2022-10-16T11:16:20.448Z,9.43
2022-10-16T11:18:55.372Z,9.25
2022-10-16T11:21:28.739Z,9.88
2022-10-16T11:24:06.978Z,7.03
2022-10-16T11:26:37.229Z,8.88
2022-10-16T11:29:07.596Z,7.72
2022-10-16T11:31:40.057Z,9.00
2022-10-16T11:34:16.974Z,11.23
2022-10-16T11:36:47.490Z,9.65
2022-10-16T11:39:22.483Z,7.63
2022-10-16T11:41:52.800Z,11.15
2022-10-16T11:44:44.754Z,9.13
2022-10-16T11:50:23.465Z,9.82
2022-10-16T11:52:58.034Z,11.95
2022-10-16T11:55:31.595Z,7.57
2022-10-16T11:58:03.549Z,9.13
2022-10-16T12:00:37.245Z,10.30
2022-10-16T12:03:11.186Z,9.25
2022-10-16T12:06:03.729Z,9.10
2022-10-16T12:08:32.297Z,13.05
2022-10-16T12:11:10.290Z,8.93
2022-10-16T12:13:40.193Z,10.00
2022-10-16T12:16:23.954Z,10.07
2022-10-16T12:19:05.852Z,10.38
2022-10-16T12:21:34.543Z,10.65
2022-10-16T12:24:06.000Z,8.35
2022-10-16T12:26:36.389Z,9.45
2022-10-16T12:29:17.015Z,10.27
2022-10-16T12:31:57.243Z,12.65
2022-10-16T12:34:30.209Z,10.93
2022-10-16T12:36:58.873Z,9.55
2022-10-16T12:39:27.503Z,10.02
2022-10-16T12:42:06.469Z,14.43
2022-10-16T12:44:35.635Z,11.77
2022-10-16T12:47:07.677Z,9.85
2022-10-16T12:49:39.706Z,9.35
2022-10-16T12:52:30.202Z,8.85
2022-10-16T12:55:01.000Z,10.82
2022-10-16T12:57:40.427Z,9.35
2022-10-16T13:00:20.920Z,8.32
2022-10-16T13:03:33.382Z,10.43
2022-10-16T13:06:27.586Z,7.95
2022-10-16T13:09:08.935Z,8.07
2022-10-16T13:11:52.759Z,7.75
2022-10-16T13:14:49.133Z,9.40
2022-10-16T13:17:21.299Z,9.07
2022-10-16T13:19:55.886Z,7.97
2022-10-16T13:22:27.911Z,9.05
2022-10-16T13:25:10.243Z,9.50
2022-10-16T13:27:46.291Z,8.15
2022-10-16T13:30:17.965Z,11.13
2022-10-16T13:32:48.274Z,8.40
2022-10-16T13:35:26.670Z,7.88
2022-10-16T13:38:13.644Z,7.95
2022-10-16T13:40:55.230Z,8.10
2022-10-16T13:43:27.348Z,7.63
2022-10-16T13:46:03.369Z,8.48
2022-10-16T13:48:32.297Z,7.63
2022-10-16T13:51:04.113Z,7.30
2022-10-16T13:53:34.291Z,7.40
2022-10-16T13:56:04.711Z,10.00
2022-10-16T13:58:33.383Z,11.10
2022-10-16T14:01:03.618Z,7.55
2022-10-16T14:03:32.325Z,8.70
2022-10-16T14:06:04.181Z,7.68
2022-10-16T14:08:32.740Z,7.40
2022-10-16T14:11:02.278Z,9.07
2022-10-16T14:13:35.953Z,11.00
2022-10-16T14:16:09.057Z,7.38
2022-10-16T14:18:37.688Z,8.75
2022-10-16T14:21:09.524Z,8.50
2022-10-16T14:23:39.466Z,8.32
2022-10-16T14:26:15.375Z,8.35
2022-10-16T14:28:45.427Z,12.05
2022-10-16T14:31:36.857Z,8.30
2022-10-16T14:34:05.596Z,8.35
2022-10-16T14:36:36.218Z,7.38
2022-10-16T14:39:06.739Z,8.88
2022-10-16T14:41:43.989Z,8.75
2022-10-16T14:44:12.619Z,7.70
2022-10-16T14:46:42.633Z,9.40
2022-10-16T14:49:18.451Z,10.27
2022-10-16T14:51:48.720Z,9.05
2022-10-16T14:54:19.046Z,9.88
2022-10-16T14:56:50.473Z,9.55
2022-10-16T14:59:23.114Z,7.53
2022-10-16T15:01:51.665Z,8.48
2022-10-16T15:04:20.279Z,8.25
2022-10-16T15:06:50.393Z,7.15
2022-10-16T15:09:18.981Z,8.52
2022-10-16T15:11:48.616Z,8.88
2022-10-16T15:14:17.362Z,8.75
2022-10-16T15:16:46.912Z,7.15
2022-10-16T15:19:15.562Z,9.15
2022-10-16T15:21:44.692Z,7.32
2022-10-16T15:24:20.714Z,8.70
2022-10-16T15:26:50.453Z,9.35
2022-10-16T15:29:21.093Z,7.78
2022-10-16T15:31:49.836Z,7.72
2022-10-16T15:34:20.488Z,7.50
2022-10-16T15:36:49.096Z,8.85
2022-10-16T15:39:21.333Z,7.63
2022-10-16T15:41:52.212Z,8.48
2022-10-16T15:44:21.289Z,11.52
2022-10-16T15:46:49.846Z,10.80
2022-10-16T15:49:18.450Z,9.90
2022-10-16T15:51:47.150Z,8.15
2022-10-16T15:54:16.450Z,9.63
2022-10-16T15:56:46.952Z,8.15
2022-10-16T15:59:15.505Z,7.82
2022-10-16T16:01:44.254Z,8.50
2022-10-16T16:04:31.849Z,8.25
2022-10-16T16:07:02.303Z,10.88
2022-10-16T16:09:31.904Z,8.40
2022-10-16T16:12:02.179Z,9.65
2022-10-16T16:14:30.850Z,8.98
2022-10-16T16:16:59.558Z,10.57
2022-10-16T16:19:28.190Z,8.43
2022-10-16T16:21:56.940Z,9.60
2022-10-16T16:24:27.549Z,9.20
2022-10-16T16:26:56.223Z,12.23
2022-10-16T16:29:26.196Z,10.07
2022-10-16T16:31:58.293Z,11.23
2022-10-16T16:34:27.193Z,10.20
2022-10-16T16:36:55.911Z,12.07
2022-10-16T16:39:24.745Z,9.82
2022-10-16T16:41:53.437Z,10.95
2022-10-16T16:44:22.323Z,11.30
2022-10-16T16:46:52.455Z,9.23
2022-10-16T16:49:21.056Z,10.80
2022-10-16T16:51:49.664Z,9.77
2022-10-16T16:54:18.340Z,13.80
2022-10-16T16:56:57.078Z,10.98
2022-10-16T16:59:25.693Z,17.88
2022-10-16T17:01:57.124Z,13.85
2022-10-16T17:04:25.939Z,11.45
2022-10-16T17:06:55.358Z,11.27
2022-10-16T17:09:24.091Z,14.32
2022-10-16T17:11:52.705Z,11.23
2022-10-16T17:14:21.235Z,12.05
2022-10-16T17:16:50.088Z,13.65
2022-10-16T17:19:20.979Z,14.85
2022-10-16T17:21:51.109Z,12.63
2022-10-16T17:24:21.163Z,14.35
2022-10-16T17:26:50.498Z,12.93
2022-10-16T17:29:19.407Z,11.80
2022-10-16T17:31:49.931Z,12.98
2022-10-16T17:34:19.858Z,14.68
2022-10-16T17:36:48.516Z,12.73
2022-10-16T17:39:19.119Z,13.38
2022-10-16T17:41:48.975Z,11.02
2022-10-16T17:44:20.902Z,12.23
2022-10-16T17:46:49.841Z,14.52
2022-10-16T17:49:21.011Z,13.80
2022-10-16T17:51:51.967Z,11.70
2022-10-16T17:54:21.030Z,15.82
2022-10-16T17:56:49.882Z,12.07
2022-10-16T17:59:20.878Z,11.73
2022-10-16T18:01:49.625Z,12.10
2022-10-16T18:04:18.652Z,12.75
2022-10-16T18:06:48.957Z,11.38
2022-10-16T18:09:19.239Z,14.35
2022-10-16T18:11:49.219Z,15.60
2022-10-16T18:14:19.059Z,15.90
2022-10-16T18:16:47.801Z,14.13
2022-10-16T18:19:16.558Z,16.10
2022-10-16T18:21:45.173Z,14.88
2022-10-16T18:24:15.185Z,13.45
2022-10-16T18:26:43.835Z,16.05
2022-10-16T18:29:12.677Z,12.15
2022-10-16T18:31:42.755Z,12.73
2022-10-16T18:34:11.844Z,11.70
2022-10-16T18:36:42.402Z,13.45
2022-10-16T18:39:11.576Z,12.30
2022-10-16T18:41:44.819Z,14.88
2022-10-16T18:44:13.957Z,13.10
2022-10-16T18:46:42.712Z,12.60
2022-10-16T18:49:11.550Z,12.00
2022-10-16T18:51:40.861Z,13.63
2022-10-16T18:54:11.699Z,14.30
2022-10-16T18:56:41.585Z,13.00
2022-10-16T18:59:10.736Z,15.93
2022-10-16T19:01:39.752Z,14.18
2022-10-16T19:04:09.717Z,12.10
2022-10-16T19:06:40.080Z,16.48
2022-10-16T19:09:10.475Z,14.75
2022-10-16T19:11:41.843Z,13.13
2022-10-16T19:14:12.174Z,14.57
2022-10-16T19:16:42.858Z,13.13
2022-10-16T19:19:18.347Z,12.98
2022-10-16T19:21:48.247Z,13.38
2022-10-16T19:24:17.742Z,15.13
2022-10-16T19:26:46.353Z,15.82
2022-10-16T19:29:16.414Z,12.60
2022-10-16T19:31:45.225Z,12.70
2022-10-16T19:34:14.058Z,16.10
2022-10-16T19:36:45.127Z,15.13
2022-10-16T19:39:15.983Z,15.20
2022-10-16T19:41:44.948Z,14.57
2022-10-16T19:44:16.928Z,15.60
2022-10-16T19:46:46.421Z,13.68
2022-10-16T19:49:18.128Z,13.68
2022-10-16T19:51:50.524Z,11.73
2022-10-16T19:54:19.264Z,13.60
2022-10-16T19:56:48.180Z,11.50
2022-10-16T19:59:20.371Z,13.27
2022-10-16T20:01:49.353Z,13.13
2022-10-16T20:04:17.973Z,13.25
2022-10-16T20:06:47.207Z,14.73
2022-10-16T20:09:15.920Z,12.80
2022-10-16T20:11:44.591Z,11.73
2022-10-16T20:14:13.168Z,14.68
2022-10-16T20:16:46.538Z,12.43
2022-10-16T20:19:15.159Z,12.05
2022-10-16T20:21:43.946Z,12.40
2022-10-16T20:24:12.760Z,12.07
2022-10-16T20:26:41.631Z,12.73
2022-10-16T20:29:10.306Z,14.68
2022-10-16T20:31:39.925Z,12.57
2022-10-16T20:34:12.167Z,13.90
2022-10-16T20:36:43.040Z,12.90
2022-10-16T20:39:13.765Z,12.30
2022-10-16T20:41:42.506Z,13.25
2022-10-16T20:44:11.133Z,12.02
2022-10-16T20:46:39.939Z,12.25
2022-10-16T20:49:27.865Z,12.90
2022-10-16T20:51:58.729Z,12.15
2022-10-16T20:54:27.248Z,11.65
2022-10-16T20:56:56.037Z,11.85
2022-10-16T20:59:24.657Z,12.63
2022-10-16T21:01:53.367Z,13.60
2022-10-16T21:04:23.372Z,13.18
2022-10-16T21:06:52.132Z,11.55
2022-10-16T21:09:20.645Z,13.27
2022-10-16T21:11:49.297Z,13.68
2022-10-16T21:14:17.810Z,13.75
2022-10-16T21:16:46.565Z,13.98
2022-10-16T21:19:15.374Z,13.23
2022-10-16T21:21:45.456Z,12.65
2022-10-16T21:24:16.614Z,15.02
2022-10-16T21:26:45.989Z,13.95
2022-10-16T21:29:14.561Z,13.57
2022-10-16T21:31:43.430Z,16.92
2022-10-16T21:34:11.972Z,15.57
2022-10-16T21:36:42.130Z,12.57
2022-10-16T21:39:13.485Z,12.75
2022-10-16T21:41:42.404Z,13.98
2022-10-16T21:44:11.259Z,14.90
2022-10-16T21:46:41.066Z,14.88
2022-10-16T21:49:13.363Z,14.15
2022-10-16T21:51:43.317Z,13.18
2022-10-16T21:54:14.722Z,14.77
2022-10-16T21:56:43.465Z,13.50
2022-10-16T21:59:12.836Z,15.05
2022-10-16T22:01:41.458Z,15.85
2022-10-16T22:04:11.417Z,14.45
2022-10-16T22:06:40.240Z,13.50
2022-10-16T22:09:08.897Z,13.25
2022-10-16T22:11:38.898Z,15.40
2022-10-16T22:14:08.481Z,14.52
2022-10-16T22:16:37.277Z,13.25
2022-10-16T22:19:07.458Z,14.68
2022-10-16T22:21:37.240Z,14.10
2022-10-16T22:24:07.377Z,13.23
2022-10-16T22:26:36.300Z,17.85
2022-10-16T22:29:06.448Z,14.32
2022-10-16T22:31:35.199Z,12.68
2022-10-16T22:34:04.895Z,14.88
2022-10-16T22:36:33.644Z,13.25
2022-10-16T22:39:02.361Z,14.98
2022-10-16T22:41:30.868Z,13.00
2022-10-16T22:43:59.548Z,15.15
2022-10-16T22:46:32.042Z,13.20
2022-10-16T22:49:00.772Z,14.90
2022-10-16T22:51:29.427Z,13.48
2022-10-16T22:53:58.795Z,16.33
2022-10-16T22:56:27.390Z,15.75
2022-10-16T22:58:57.545Z,13.05
2022-10-16T23:01:29.628Z,14.73
2022-10-16T23:03:58.249Z,15.65
2022-10-16T23:06:26.875Z,16.92
2022-10-16T23:08:55.917Z,14.65
2022-10-16T23:11:24.572Z,13.38
2022-10-16T23:13:53.160Z,14.90
2022-10-16T23:16:23.037Z,12.93
2022-10-16T23:18:52.921Z,15.23
2022-10-16T23:21:22.996Z,15.80
2022-10-16T23:23:51.811Z,15.73
2022-10-16T23:26:22.967Z,14.77
2022-10-16T23:28:51.662Z,15.13
2022-10-16T23:31:20.594Z,13.88
2022-10-16T23:33:49.164Z,14.95
2022-10-16T23:36:20.170Z,19.58
2022-10-16T23:38:48.800Z,16.10
2022-10-16T23:41:17.632Z,15.43
2022-10-16T23:43:46.389Z,18.63
2022-10-16T23:46:15.527Z,14.93
2022-10-16T23:48:44.452Z,15.15
2022-10-16T23:51:13.059Z,15.85
2022-10-16T23:53:43.383Z,16.00
2022-10-16T23:56:12.005Z,14.80
2022-10-16T23:58:41.076Z,16.90
